sensor_id;sensor_type;location;lat;lon;timestamp;temperature;humidity
10883;DHT22;5494;51.796;10.952;2022-08-19T00:02:02;21.20;99.90
10883;DHT22;5494;51.796;10.952;2022-08-19T00:04:34;21.20;99.90
10883;DHT22;5494;51.796;10.952;2022-08-19T00:07:05;21.10;99.90
10883;DHT22;5494;51.796;10.952;2022-08-19T00:09:34;21.20;99.90
10883;DHT22;5494;51.796;10.952;2022-08-19T00:12:04;21.20;99.90
10883;DHT22;5494;51.796;10.952;2022-08-19T00:14:33;21.20;99.90
10883;DHT22;5494;51.796;10.952;2022-08-19T00:17:03;21.20;99.90
10883;DHT22;5494;51.796;10.952;2022-08-19T00:19:34;21.20;99.90
10883;DHT22;5494;51.796;10.952;2022-08-19T00:22:03;21.20;99.90
10883;DHT22;5494;51.796;10.952;2022-08-19T00:24:32;21.20;99.90
10883;DHT22;5494;51.796;10.952;2022-08-19T00:27:01;21.20;99.90
10883;DHT22;5494;51.796;10.952;2022-08-19T00:29:52;21.10;99.90
10883;DHT22;5494;51.796;10.952;2022-08-19T00:32:21;21.10;99.90
10883;DHT22;5494;51.796;10.952;2022-08-19T00:34:50;21.10;99.90
10883;DHT22;5494;51.796;10.952;2022-08-19T00:37:20;21.00;99.90
10883;DHT22;5494;51.796;10.952;2022-08-19T00:39:50;21.00;99.90
10883;DHT22;5494;51.796;10.952;2022-08-19T00:42:20;20.90;99.90
10883;DHT22;5494;51.796;10.952;2022-08-19T00:44:49;20.90;99.90
10883;DHT22;5494;51.796;10.952;2022-08-19T00:47:19;20.80;99.90
10883;DHT22;5494;51.796;10.952;2022-08-19T00:49:51;20.70;99.90
10883;DHT22;5494;51.796;10.952;2022-08-19T00:52:24;20.80;99.90
10883;DHT22;5494;51.796;10.952;2022-08-19T00:54:57;20.70;99.90
10883;DHT22;5494;51.796;10.952;2022-08-19T00:57:31;20.70;99.90
10883;DHT22;5494;51.796;10.952;2022-08-19T01:00:07;20.70;99.90
10883;DHT22;5494;51.796;10.952;2022-08-19T01:02:41;20.60;99.90
10883;DHT22;5494;51.796;10.952;2022-08-19T01:05:14;20.70;99.90
10883;DHT22;5494;51.796;10.952;2022-08-19T01:07:48;20.70;99.90
10883;DHT22;5494;51.796;10.952;2022-08-19T01:10:21;20.70;99.90
10883;DHT22;5494;51.796;10.952;2022-08-19T01:12:52;20.70;99.90
10883;DHT22;5494;51.796;10.952;2022-08-19T01:15:24;20.70;99.90
10883;DHT22;5494;51.796;10.952;2022-08-19T01:17:59;20.70;99.90
10883;DHT22;5494;51.796;10.952;2022-08-19T01:20:32;20.70;99.90
10883;DHT22;5494;51.796;10.952;2022-08-19T01:23:03;20.70;99.90
10883;DHT22;5494;51.796;10.952;2022-08-19T01:25:40;20.70;99.90
10883;DHT22;5494;51.796;10.952;2022-08-19T01:28:16;20.70;99.90
10883;DHT22;5494;51.796;10.952;2022-08-19T01:31:00;20.70;99.90
10883;DHT22;5494;51.796;10.952;2022-08-19T01:33:34;20.60;99.90
10883;DHT22;5494;51.796;10.952;2022-08-19T01:36:05;20.60;99.90
10883;DHT22;5494;51.796;10.952;2022-08-19T01:38:39;20.60;99.90
10883;DHT22;5494;51.796;10.952;2022-08-19T01:41:11;20.60;99.90
10883;DHT22;5494;51.796;10.952;2022-08-19T01:43:40;20.60;99.90
10883;DHT22;5494;51.796;10.952;2022-08-19T01:46:29;20.60;99.90
10883;DHT22;5494;51.796;10.952;2022-08-19T01:48:57;20.60;99.90
10883;DHT22;5494;51.796;10.952;2022-08-19T01:51:27;20.60;99.90
10883;DHT22;5494;51.796;10.952;2022-08-19T01:54:08;20.50;99.90
10883;DHT22;5494;51.796;10.952;2022-08-19T01:56:37;20.60;99.90
10883;DHT22;5494;51.796;10.952;2022-08-19T01:59:10;20.50;99.90
10883;DHT22;5494;51.796;10.952;2022-08-19T02:01:42;20.60;99.90
10883;DHT22;5494;51.796;10.952;2022-08-19T02:04:11;20.60;99.90
10883;DHT22;5494;51.796;10.952;2022-08-19T02:06:39;20.60;99.90
10883;DHT22;5494;51.796;10.952;2022-08-19T02:09:09;20.50;99.90
10883;DHT22;5494;51.796;10.952;2022-08-19T02:11:38;20.50;99.90
10883;DHT22;5494;51.796;10.952;2022-08-19T02:14:08;20.50;99.90
10883;DHT22;5494;51.796;10.952;2022-08-19T02:16:37;20.50;99.90
10883;DHT22;5494;51.796;10.952;2022-08-19T02:19:07;20.50;99.90
10883;DHT22;5494;51.796;10.952;2022-08-19T02:21:36;20.50;99.90
10883;DHT22;5494;51.796;10.952;2022-08-19T02:24:05;20.50;99.90
10883;DHT22;5494;51.796;10.952;2022-08-19T02:26:35;19.80;99.90
10883;DHT22;5494;51.796;10.952;2022-08-19T02:29:03;20.40;99.90
10883;DHT22;5494;51.796;10.952;2022-08-19T02:31:32;20.40;99.90
10883;DHT22;5494;51.796;10.952;2022-08-19T02:34:01;20.40;99.90
10883;DHT22;5494;51.796;10.952;2022-08-19T02:36:30;20.40;99.90
10883;DHT22;5494;51.796;10.952;2022-08-19T02:38:59;20.40;99.90
10883;DHT22;5494;51.796;10.952;2022-08-19T02:41:29;20.40;99.90
10883;DHT22;5494;51.796;10.952;2022-08-19T02:44:02;20.40;99.90
10883;DHT22;5494;51.796;10.952;2022-08-19T02:46:52;20.40;99.90
10883;DHT22;5494;51.796;10.952;2022-08-19T02:49:20;20.30;99.90
10883;DHT22;5494;51.796;10.952;2022-08-19T02:51:49;20.30;99.90
10883;DHT22;5494;51.796;10.952;2022-08-19T02:54:18;20.30;99.90
10883;DHT22;5494;51.796;10.952;2022-08-19T02:56:47;20.30;99.90
10883;DHT22;5494;51.796;10.952;2022-08-19T02:59:16;20.20;99.90
10883;DHT22;5494;51.796;10.952;2022-08-19T03:01:49;20.30;99.90
10883;DHT22;5494;51.796;10.952;2022-08-19T03:04:18;20.20;99.90
10883;DHT22;5494;51.796;10.952;2022-08-19T03:06:47;20.30;99.90
10883;DHT22;5494;51.796;10.952;2022-08-19T03:09:17;20.20;99.90
10883;DHT22;5494;51.796;10.952;2022-08-19T03:11:47;20.20;99.90
10883;DHT22;5494;51.796;10.952;2022-08-19T03:14:20;20.10;99.90
10883;DHT22;5494;51.796;10.952;2022-08-19T03:16:51;20.10;99.90
10883;DHT22;5494;51.796;10.952;2022-08-19T03:19:20;20.10;99.90
10883;DHT22;5494;51.796;10.952;2022-08-19T03:21:49;20.10;99.90
10883;DHT22;5494;51.796;10.952;2022-08-19T03:24:19;20.00;99.90
10883;DHT22;5494;51.796;10.952;2022-08-19T03:26:50;20.00;99.90
10883;DHT22;5494;51.796;10.952;2022-08-19T03:29:26;20.00;99.90
10883;DHT22;5494;51.796;10.952;2022-08-19T03:31:59;20.00;99.90
10883;DHT22;5494;51.796;10.952;2022-08-19T03:34:33;20.00;99.90
10883;DHT22;5494;51.796;10.952;2022-08-19T03:37:05;20.00;99.90
10883;DHT22;5494;51.796;10.952;2022-08-19T03:39:36;20.00;99.90
10883;DHT22;5494;51.796;10.952;2022-08-19T03:42:06;20.00;99.90
10883;DHT22;5494;51.796;10.952;2022-08-19T03:44:57;19.90;99.90
10883;DHT22;5494;51.796;10.952;2022-08-19T03:47:26;19.90;99.90
10883;DHT22;5494;51.796;10.952;2022-08-19T03:49:54;19.90;99.90
10883;DHT22;5494;51.796;10.952;2022-08-19T03:52:23;19.80;99.90
10883;DHT22;5494;51.796;10.952;2022-08-19T03:54:51;19.70;99.90
10883;DHT22;5494;51.796;10.952;2022-08-19T03:57:19;19.70;99.90
10883;DHT22;5494;51.796;10.952;2022-08-19T03:59:59;19.70;99.90
10883;DHT22;5494;51.796;10.952;2022-08-19T04:02:38;19.70;99.90
10883;DHT22;5494;51.796;10.952;2022-08-19T04:05:08;19.60;99.90
10883;DHT22;5494;51.796;10.952;2022-08-19T04:07:37;19.60;99.90
10883;DHT22;5494;51.796;10.952;2022-08-19T04:10:06;19.60;99.90
10883;DHT22;5494;51.796;10.952;2022-08-19T04:12:37;19.50;99.90
10883;DHT22;5494;51.796;10.952;2022-08-19T04:15:09;19.60;99.90
10883;DHT22;5494;51.796;10.952;2022-08-19T04:17:38;19.50;99.90
10883;DHT22;5494;51.796;10.952;2022-08-19T04:20:08;19.50;99.90
10883;DHT22;5494;51.796;10.952;2022-08-19T04:22:37;19.50;99.90
10883;DHT22;5494;51.796;10.952;2022-08-19T04:25:06;19.60;99.90
10883;DHT22;5494;51.796;10.952;2022-08-19T04:27:35;19.50;99.90
10883;DHT22;5494;51.796;10.952;2022-08-19T04:30:04;19.60;99.90
10883;DHT22;5494;51.796;10.952;2022-08-19T04:32:34;19.60;99.90
10883;DHT22;5494;51.796;10.952;2022-08-19T04:35:03;19.60;99.90
10883;DHT22;5494;51.796;10.952;2022-08-19T04:37:44;19.60;99.90
10883;DHT22;5494;51.796;10.952;2022-08-19T04:40:13;19.50;99.90
10883;DHT22;5494;51.796;10.952;2022-08-19T04:42:56;19.50;99.90
10883;DHT22;5494;51.796;10.952;2022-08-19T04:45:24;19.40;99.90
10883;DHT22;5494;51.796;10.952;2022-08-19T04:47:55;19.40;99.90
10883;DHT22;5494;51.796;10.952;2022-08-19T04:50:44;19.40;99.90
10883;DHT22;5494;51.796;10.952;2022-08-19T04:53:12;19.30;99.90
10883;DHT22;5494;51.796;10.952;2022-08-19T04:55:41;19.30;99.90
10883;DHT22;5494;51.796;10.952;2022-08-19T04:58:10;19.30;99.90
10883;DHT22;5494;51.796;10.952;2022-08-19T05:00:39;19.30;99.90
10883;DHT22;5494;51.796;10.952;2022-08-19T05:03:09;19.30;99.90
10883;DHT22;5494;51.796;10.952;2022-08-19T05:05:39;19.30;99.90
10883;DHT22;5494;51.796;10.952;2022-08-19T05:08:11;19.30;99.90
10883;DHT22;5494;51.796;10.952;2022-08-19T05:10:41;19.30;99.90
10883;DHT22;5494;51.796;10.952;2022-08-19T05:13:10;19.30;99.90
10883;DHT22;5494;51.796;10.952;2022-08-19T05:15:39;19.30;99.90
10883;DHT22;5494;51.796;10.952;2022-08-19T05:18:08;19.30;99.90
10883;DHT22;5494;51.796;10.952;2022-08-19T05:20:55;19.30;99.90
10883;DHT22;5494;51.796;10.952;2022-08-19T05:23:41;19.30;99.90
10883;DHT22;5494;51.796;10.952;2022-08-19T05:26:09;19.20;99.90
10883;DHT22;5494;51.796;10.952;2022-08-19T05:28:37;19.20;99.90
10883;DHT22;5494;51.796;10.952;2022-08-19T05:31:06;19.30;99.90
10883;DHT22;5494;51.796;10.952;2022-08-19T05:33:36;19.30;99.90
10883;DHT22;5494;51.796;10.952;2022-08-19T05:36:07;19.30;99.90
10883;DHT22;5494;51.796;10.952;2022-08-19T05:38:36;19.40;99.90
10883;DHT22;5494;51.796;10.952;2022-08-19T05:41:07;19.40;99.90
10883;DHT22;5494;51.796;10.952;2022-08-19T05:43:36;19.40;99.90
10883;DHT22;5494;51.796;10.952;2022-08-19T05:46:07;19.40;99.90
10883;DHT22;5494;51.796;10.952;2022-08-19T05:48:38;19.40;99.90
10883;DHT22;5494;51.796;10.952;2022-08-19T05:51:07;19.40;99.90
10883;DHT22;5494;51.796;10.952;2022-08-19T05:53:37;19.40;99.90
10883;DHT22;5494;51.796;10.952;2022-08-19T05:56:06;19.40;99.90
10883;DHT22;5494;51.796;10.952;2022-08-19T05:58:37;19.40;99.90
10883;DHT22;5494;51.796;10.952;2022-08-19T06:01:10;19.40;99.90
10883;DHT22;5494;51.796;10.952;2022-08-19T06:03:43;19.40;99.90
10883;DHT22;5494;51.796;10.952;2022-08-19T06:06:14;19.30;99.90
10883;DHT22;5494;51.796;10.952;2022-08-19T06:08:44;19.30;99.90
10883;DHT22;5494;51.796;10.952;2022-08-19T06:11:20;19.20;99.90
10883;DHT22;5494;51.796;10.952;2022-08-19T06:13:52;19.20;99.90
10883;DHT22;5494;51.796;10.952;2022-08-19T06:16:26;19.10;99.90
10883;DHT22;5494;51.796;10.952;2022-08-19T06:19:00;19.00;99.90
10883;DHT22;5494;51.796;10.952;2022-08-19T06:21:35;19.00;99.90
10883;DHT22;5494;51.796;10.952;2022-08-19T06:24:06;19.10;99.90
10883;DHT22;5494;51.796;10.952;2022-08-19T06:26:39;19.00;99.90
10883;DHT22;5494;51.796;10.952;2022-08-19T06:29:11;19.00;99.90
10883;DHT22;5494;51.796;10.952;2022-08-19T06:31:52;19.10;99.90
10883;DHT22;5494;51.796;10.952;2022-08-19T06:34:25;19.00;99.90
10883;DHT22;5494;51.796;10.952;2022-08-19T06:36:56;19.10;99.90
10883;DHT22;5494;51.796;10.952;2022-08-19T06:39:29;19.00;99.90
10883;DHT22;5494;51.796;10.952;2022-08-19T06:42:02;19.00;99.90
10883;DHT22;5494;51.796;10.952;2022-08-19T06:44:38;19.00;99.90
10883;DHT22;5494;51.796;10.952;2022-08-19T06:47:17;19.00;99.90
10883;DHT22;5494;51.796;10.952;2022-08-19T06:49:56;19.00;99.90
10883;DHT22;5494;51.796;10.952;2022-08-19T06:52:31;19.00;99.90
10883;DHT22;5494;51.796;10.952;2022-08-19T06:55:03;19.00;99.90
10883;DHT22;5494;51.796;10.952;2022-08-19T06:57:35;19.00;99.90
10883;DHT22;5494;51.796;10.952;2022-08-19T07:00:05;19.10;99.90
10883;DHT22;5494;51.796;10.952;2022-08-19T07:02:39;19.10;99.90
10883;DHT22;5494;51.796;10.952;2022-08-19T07:05:16;19.10;99.90
10883;DHT22;5494;51.796;10.952;2022-08-19T07:07:46;19.10;99.90
10883;DHT22;5494;51.796;10.952;2022-08-19T07:10:17;19.00;99.90
10883;DHT22;5494;51.796;10.952;2022-08-19T07:12:46;19.00;99.90
10883;DHT22;5494;51.796;10.952;2022-08-19T07:15:17;18.90;99.90
10883;DHT22;5494;51.796;10.952;2022-08-19T07:17:48;19.00;99.90
10883;DHT22;5494;51.796;10.952;2022-08-19T07:20:20;19.00;99.90
10883;DHT22;5494;51.796;10.952;2022-08-19T07:22:54;19.00;99.90
10883;DHT22;5494;51.796;10.952;2022-08-19T07:25:22;19.00;99.90
10883;DHT22;5494;51.796;10.952;2022-08-19T07:27:58;19.00;99.90
10883;DHT22;5494;51.796;10.952;2022-08-19T07:30:28;19.00;99.90
10883;DHT22;5494;51.796;10.952;2022-08-19T07:32:57;19.00;99.90
10883;DHT22;5494;51.796;10.952;2022-08-19T07:35:30;19.00;99.90
10883;DHT22;5494;51.796;10.952;2022-08-19T07:38:00;19.00;99.90
10883;DHT22;5494;51.796;10.952;2022-08-19T07:40:30;19.00;99.90
10883;DHT22;5494;51.796;10.952;2022-08-19T07:42:59;19.10;99.90
10883;DHT22;5494;51.796;10.952;2022-08-19T07:45:27;19.00;99.90
10883;DHT22;5494;51.796;10.952;2022-08-19T07:47:56;19.10;99.90
10883;DHT22;5494;51.796;10.952;2022-08-19T07:50:25;19.10;99.90
10883;DHT22;5494;51.796;10.952;2022-08-19T07:52:58;19.00;99.90
10883;DHT22;5494;51.796;10.952;2022-08-19T07:55:27;19.00;99.90
10883;DHT22;5494;51.796;10.952;2022-08-19T07:58:10;19.00;99.90
10883;DHT22;5494;51.796;10.952;2022-08-19T08:00:41;19.00;99.90
10883;DHT22;5494;51.796;10.952;2022-08-19T08:03:10;19.00;99.90
10883;DHT22;5494;51.796;10.952;2022-08-19T08:05:39;19.00;99.90
10883;DHT22;5494;51.796;10.952;2022-08-19T08:08:28;19.00;99.90
10883;DHT22;5494;51.796;10.952;2022-08-19T08:11:16;18.90;99.90
10883;DHT22;5494;51.796;10.952;2022-08-19T08:13:47;18.90;99.90
10883;DHT22;5494;51.796;10.952;2022-08-19T08:16:32;18.90;99.90
10883;DHT22;5494;51.796;10.952;2022-08-19T08:19:13;18.80;99.90
10883;DHT22;5494;51.796;10.952;2022-08-19T08:21:54;18.80;99.90
10883;DHT22;5494;51.796;10.952;2022-08-19T08:24:26;18.90;99.90
10883;DHT22;5494;51.796;10.952;2022-08-19T08:26:59;18.90;99.90
10883;DHT22;5494;51.796;10.952;2022-08-19T08:29:37;18.90;99.90
10883;DHT22;5494;51.796;10.952;2022-08-19T08:32:08;19.00;99.90
10883;DHT22;5494;51.796;10.952;2022-08-19T08:34:41;18.90;99.90
10883;DHT22;5494;51.796;10.952;2022-08-19T08:37:09;18.90;99.90
10883;DHT22;5494;51.796;10.952;2022-08-19T08:39:43;18.90;99.90
10883;DHT22;5494;51.796;10.952;2022-08-19T08:42:20;19.00;99.90
10883;DHT22;5494;51.796;10.952;2022-08-19T08:44:58;19.00;99.90
10883;DHT22;5494;51.796;10.952;2022-08-19T08:47:32;19.00;99.90
10883;DHT22;5494;51.796;10.952;2022-08-19T08:50:12;19.00;99.90
10883;DHT22;5494;51.796;10.952;2022-08-19T08:52:45;19.00;99.90
10883;DHT22;5494;51.796;10.952;2022-08-19T08:55:22;19.00;99.90
10883;DHT22;5494;51.796;10.952;2022-08-19T08:58:05;19.00;99.90
10883;DHT22;5494;51.796;10.952;2022-08-19T09:00:45;19.00;99.90
10883;DHT22;5494;51.796;10.952;2022-08-19T09:03:19;18.90;99.90
10883;DHT22;5494;51.796;10.952;2022-08-19T09:05:58;19.00;99.90
10883;DHT22;5494;51.796;10.952;2022-08-19T09:08:39;19.00;99.90
10883;DHT22;5494;51.796;10.952;2022-08-19T09:11:19;19.10;99.90
10883;DHT22;5494;51.796;10.952;2022-08-19T09:14:18;19.10;99.90
10883;DHT22;5494;51.796;10.952;2022-08-19T09:17:18;19.10;99.90
10883;DHT22;5494;51.796;10.952;2022-08-19T09:19:59;19.10;99.90
10883;DHT22;5494;51.796;10.952;2022-08-19T09:22:35;19.20;99.90
10883;DHT22;5494;51.796;10.952;2022-08-19T09:25:07;19.20;99.90
10883;DHT22;5494;51.796;10.952;2022-08-19T09:27:39;19.30;99.90
10883;DHT22;5494;51.796;10.952;2022-08-19T09:30:14;19.30;99.90
10883;DHT22;5494;51.796;10.952;2022-08-19T09:32:44;19.40;99.90
10883;DHT22;5494;51.796;10.952;2022-08-19T09:35:20;19.40;99.90
10883;DHT22;5494;51.796;10.952;2022-08-19T09:37:50;19.50;99.90
10883;DHT22;5494;51.796;10.952;2022-08-19T09:40:26;19.40;99.90
10883;DHT22;5494;51.796;10.952;2022-08-19T09:42:59;19.50;99.90
10883;DHT22;5494;51.796;10.952;2022-08-19T09:45:39;19.50;99.90
10883;DHT22;5494;51.796;10.952;2022-08-19T09:48:08;19.60;99.90
10883;DHT22;5494;51.796;10.952;2022-08-19T09:50:37;19.70;99.90
10883;DHT22;5494;51.796;10.952;2022-08-19T09:53:18;19.70;99.90
10883;DHT22;5494;51.796;10.952;2022-08-19T09:55:52;19.80;99.90
10883;DHT22;5494;51.796;10.952;2022-08-19T09:58:24;19.80;99.90
10883;DHT22;5494;51.796;10.952;2022-08-19T10:00:55;19.80;99.90
10883;DHT22;5494;51.796;10.952;2022-08-19T10:03:24;19.80;99.90
10883;DHT22;5494;51.796;10.952;2022-08-19T10:05:58;19.90;99.90
10883;DHT22;5494;51.796;10.952;2022-08-19T10:08:29;19.90;99.90
10883;DHT22;5494;51.796;10.952;2022-08-19T10:11:00;20.00;99.90
10883;DHT22;5494;51.796;10.952;2022-08-19T10:13:55;20.10;99.90
10883;DHT22;5494;51.796;10.952;2022-08-19T10:16:23;20.10;99.90
10883;DHT22;5494;51.796;10.952;2022-08-19T10:18:57;20.20;99.90
10883;DHT22;5494;51.796;10.952;2022-08-19T10:21:31;20.30;99.90
10883;DHT22;5494;51.796;10.952;2022-08-19T10:24:03;20.30;99.90
10883;DHT22;5494;51.796;10.952;2022-08-19T10:26:37;20.30;99.90
10883;DHT22;5494;51.796;10.952;2022-08-19T10:29:10;20.30;99.90
10883;DHT22;5494;51.796;10.952;2022-08-19T10:31:38;20.40;99.90
10883;DHT22;5494;51.796;10.952;2022-08-19T10:34:27;20.50;99.90
10883;DHT22;5494;51.796;10.952;2022-08-19T10:36:57;20.70;99.90
10883;DHT22;5494;51.796;10.952;2022-08-19T10:39:29;20.90;99.90
10883;DHT22;5494;51.796;10.952;2022-08-19T10:42:07;21.10;99.90
10883;DHT22;5494;51.796;10.952;2022-08-19T10:44:39;21.50;99.90
10883;DHT22;5494;51.796;10.952;2022-08-19T10:47:07;21.70;99.90
10883;DHT22;5494;51.796;10.952;2022-08-19T10:49:51;21.80;99.90
10883;DHT22;5494;51.796;10.952;2022-08-19T10:52:39;21.90;99.90
10883;DHT22;5494;51.796;10.952;2022-08-19T10:55:19;22.00;99.90
10883;DHT22;5494;51.796;10.952;2022-08-19T10:58:11;22.20;99.90
10883;DHT22;5494;51.796;10.952;2022-08-19T11:00:42;22.30;99.90
10883;DHT22;5494;51.796;10.952;2022-08-19T11:03:11;22.40;99.90
10883;DHT22;5494;51.796;10.952;2022-08-19T11:05:39;22.40;99.90
10883;DHT22;5494;51.796;10.952;2022-08-19T11:08:08;22.50;99.90
10883;DHT22;5494;51.796;10.952;2022-08-19T11:10:51;22.60;99.90
10883;DHT22;5494;51.796;10.952;2022-08-19T11:13:28;22.60;99.90
10883;DHT22;5494;51.796;10.952;2022-08-19T11:16:00;22.50;99.90
10883;DHT22;5494;51.796;10.952;2022-08-19T11:18:36;22.60;99.90
10883;DHT22;5494;51.796;10.952;2022-08-19T11:21:09;22.70;99.90
10883;DHT22;5494;51.796;10.952;2022-08-19T11:23:40;22.80;99.90
10883;DHT22;5494;51.796;10.952;2022-08-19T11:26:09;22.60;99.90
10883;DHT22;5494;51.796;10.952;2022-08-19T11:28:38;22.60;99.90
10883;DHT22;5494;51.796;10.952;2022-08-19T11:31:11;22.60;99.90
10883;DHT22;5494;51.796;10.952;2022-08-19T11:33:40;22.60;99.90
10883;DHT22;5494;51.796;10.952;2022-08-19T11:36:14;22.80;99.90
10883;DHT22;5494;51.796;10.952;2022-08-19T11:38:44;22.90;99.90
10883;DHT22;5494;51.796;10.952;2022-08-19T11:41:17;23.10;99.90
10883;DHT22;5494;51.796;10.952;2022-08-19T11:43:47;23.10;99.90
10883;DHT22;5494;51.796;10.952;2022-08-19T11:46:17;23.20;99.90
10883;DHT22;5494;51.796;10.952;2022-08-19T11:48:46;23.20;99.90
10883;DHT22;5494;51.796;10.952;2022-08-19T11:51:16;23.30;99.90
10883;DHT22;5494;51.796;10.952;2022-08-19T11:53:47;23.20;99.90
10883;DHT22;5494;51.796;10.952;2022-08-19T11:56:18;23.20;99.90
10883;DHT22;5494;51.796;10.952;2022-08-19T11:58:47;23.30;99.90
10883;DHT22;5494;51.796;10.952;2022-08-19T12:01:19;23.50;99.90
10883;DHT22;5494;51.796;10.952;2022-08-19T12:03:50;23.70;99.90
10883;DHT22;5494;51.796;10.952;2022-08-19T12:06:22;23.70;99.90
10883;DHT22;5494;51.796;10.952;2022-08-19T12:08:55;23.70;99.90
10883;DHT22;5494;51.796;10.952;2022-08-19T12:11:24;24.00;99.90
10883;DHT22;5494;51.796;10.952;2022-08-19T12:13:55;24.10;99.90
10883;DHT22;5494;51.796;10.952;2022-08-19T12:16:27;24.20;99.90
10883;DHT22;5494;51.796;10.952;2022-08-19T12:18:59;24.40;99.90
10883;DHT22;5494;51.796;10.952;2022-08-19T12:21:32;24.40;99.90
10883;DHT22;5494;51.796;10.952;2022-08-19T12:24:06;24.50;99.90
10883;DHT22;5494;51.796;10.952;2022-08-19T12:26:35;24.60;99.90
10883;DHT22;5494;51.796;10.952;2022-08-19T12:29:23;24.60;99.90
10883;DHT22;5494;51.796;10.952;2022-08-19T12:31:57;24.70;99.90
10883;DHT22;5494;51.796;10.952;2022-08-19T12:34:31;24.90;99.90
10883;DHT22;5494;51.796;10.952;2022-08-19T12:37:02;24.90;99.90
10883;DHT22;5494;51.796;10.952;2022-08-19T12:39:37;24.70;99.90
10883;DHT22;5494;51.796;10.952;2022-08-19T12:42:10;24.60;99.90
10883;DHT22;5494;51.796;10.952;2022-08-19T12:44:41;24.80;99.90
10883;DHT22;5494;51.796;10.952;2022-08-19T12:47:12;24.90;99.90
10883;DHT22;5494;51.796;10.952;2022-08-19T12:49:42;25.00;99.90
10883;DHT22;5494;51.796;10.952;2022-08-19T12:52:22;25.00;99.90
10883;DHT22;5494;51.796;10.952;2022-08-19T12:54:52;25.10;99.90
10883;DHT22;5494;51.796;10.952;2022-08-19T12:57:23;25.30;99.90
10883;DHT22;5494;51.796;10.952;2022-08-19T13:00:00;25.50;99.90
10883;DHT22;5494;51.796;10.952;2022-08-19T13:02:35;25.80;99.90
10883;DHT22;5494;51.796;10.952;2022-08-19T13:05:07;25.70;99.90
10883;DHT22;5494;51.796;10.952;2022-08-19T13:07:39;25.60;99.90
10883;DHT22;5494;51.796;10.952;2022-08-19T13:10:12;25.50;99.90
10883;DHT22;5494;51.796;10.952;2022-08-19T13:12:43;25.30;99.90
10883;DHT22;5494;51.796;10.952;2022-08-19T13:15:13;25.30;99.90
10883;DHT22;5494;51.796;10.952;2022-08-19T13:17:52;25.20;99.90
10883;DHT22;5494;51.796;10.952;2022-08-19T13:20:24;25.20;99.90
10883;DHT22;5494;51.796;10.952;2022-08-19T13:22:53;25.20;99.90
10883;DHT22;5494;51.796;10.952;2022-08-19T13:25:24;25.30;99.90
10883;DHT22;5494;51.796;10.952;2022-08-19T13:27:53;25.30;99.90
10883;DHT22;5494;51.796;10.952;2022-08-19T13:30:22;25.10;99.90
10883;DHT22;5494;51.796;10.952;2022-08-19T13:33:10;25.20;99.90
10883;DHT22;5494;51.796;10.952;2022-08-19T13:35:44;25.40;99.90
10883;DHT22;5494;51.796;10.952;2022-08-19T13:38:17;25.60;99.90
10883;DHT22;5494;51.796;10.952;2022-08-19T13:40:48;25.60;99.90
10883;DHT22;5494;51.796;10.952;2022-08-19T13:43:19;25.70;99.90
10883;DHT22;5494;51.796;10.952;2022-08-19T13:45:51;25.70;99.90
10883;DHT22;5494;51.796;10.952;2022-08-19T13:48:25;25.80;99.90
10883;DHT22;5494;51.796;10.952;2022-08-19T13:50:54;25.80;99.90
10883;DHT22;5494;51.796;10.952;2022-08-19T13:53:23;26.00;99.90
10883;DHT22;5494;51.796;10.952;2022-08-19T13:55:51;26.20;99.90
10883;DHT22;5494;51.796;10.952;2022-08-19T13:58:20;26.00;99.90
10883;DHT22;5494;51.796;10.952;2022-08-19T14:00:49;25.90;99.90
10883;DHT22;5494;51.796;10.952;2022-08-19T14:03:17;26.10;99.90
10883;DHT22;5494;51.796;10.952;2022-08-19T14:05:48;26.10;99.90
10883;DHT22;5494;51.796;10.952;2022-08-19T14:08:17;26.20;99.90
10883;DHT22;5494;51.796;10.952;2022-08-19T14:10:46;26.20;99.90
10883;DHT22;5494;51.796;10.952;2022-08-19T14:13:17;26.20;99.90
10883;DHT22;5494;51.796;10.952;2022-08-19T14:15:48;26.30;99.90
10883;DHT22;5494;51.796;10.952;2022-08-19T14:18:18;26.40;99.90
10883;DHT22;5494;51.796;10.952;2022-08-19T14:20:48;26.50;99.90
10883;DHT22;5494;51.796;10.952;2022-08-19T14:23:17;26.60;99.90
10883;DHT22;5494;51.796;10.952;2022-08-19T14:25:47;26.70;99.90
10883;DHT22;5494;51.796;10.952;2022-08-19T14:28:15;26.80;99.90
10883;DHT22;5494;51.796;10.952;2022-08-19T14:30:44;26.70;99.90
10883;DHT22;5494;51.796;10.952;2022-08-19T14:33:12;26.60;99.90
10883;DHT22;5494;51.796;10.952;2022-08-19T14:35:41;26.40;99.90
10883;DHT22;5494;51.796;10.952;2022-08-19T14:38:18;26.20;99.90
10883;DHT22;5494;51.796;10.952;2022-08-19T14:41:07;26.20;99.90
10883;DHT22;5494;51.796;10.952;2022-08-19T14:43:37;26.20;99.90
10883;DHT22;5494;51.796;10.952;2022-08-19T14:46:06;26.10;99.90
10883;DHT22;5494;51.796;10.952;2022-08-19T14:48:37;25.90;99.90
10883;DHT22;5494;51.796;10.952;2022-08-19T14:51:07;25.90;99.90
10883;DHT22;5494;51.796;10.952;2022-08-19T14:53:38;25.90;99.90
10883;DHT22;5494;51.796;10.952;2022-08-19T14:56:08;25.90;99.90
10883;DHT22;5494;51.796;10.952;2022-08-19T14:58:39;25.80;99.90
10883;DHT22;5494;51.796;10.952;2022-08-19T15:01:10;25.80;99.90
10883;DHT22;5494;51.796;10.952;2022-08-19T15:03:40;25.70;99.90
10883;DHT22;5494;51.796;10.952;2022-08-19T15:06:09;25.60;99.90
10883;DHT22;5494;51.796;10.952;2022-08-19T15:08:41;25.60;99.90
10883;DHT22;5494;51.796;10.952;2022-08-19T15:11:14;25.50;99.90
10883;DHT22;5494;51.796;10.952;2022-08-19T15:13:47;25.30;99.90
10883;DHT22;5494;51.796;10.952;2022-08-19T15:16:17;25.40;99.90
10883;DHT22;5494;51.796;10.952;2022-08-19T15:18:50;25.40;99.90
10883;DHT22;5494;51.796;10.952;2022-08-19T15:21:23;25.50;99.90
10883;DHT22;5494;51.796;10.952;2022-08-19T15:23:56;25.50;99.90
10883;DHT22;5494;51.796;10.952;2022-08-19T15:26:27;25.60;99.90
10883;DHT22;5494;51.796;10.952;2022-08-19T15:28:59;25.60;99.90
10883;DHT22;5494;51.796;10.952;2022-08-19T15:31:28;25.60;99.90
10883;DHT22;5494;51.796;10.952;2022-08-19T15:34:05;25.70;99.90
10883;DHT22;5494;51.796;10.952;2022-08-19T15:36:35;25.60;99.90
10883;DHT22;5494;51.796;10.952;2022-08-19T15:39:05;25.60;99.90
10883;DHT22;5494;51.796;10.952;2022-08-19T15:41:36;25.80;99.90
10883;DHT22;5494;51.796;10.952;2022-08-19T15:44:08;25.80;99.90
10883;DHT22;5494;51.796;10.952;2022-08-19T15:46:41;25.80;99.90
10883;DHT22;5494;51.796;10.952;2022-08-19T15:49:12;26.00;99.90
10883;DHT22;5494;51.796;10.952;2022-08-19T15:51:44;26.00;99.90
10883;DHT22;5494;51.796;10.952;2022-08-19T15:54:19;25.90;99.90
10883;DHT22;5494;51.796;10.952;2022-08-19T15:56:49;26.00;99.90
10883;DHT22;5494;51.796;10.952;2022-08-19T15:59:37;26.00;99.90
10883;DHT22;5494;51.796;10.952;2022-08-19T16:02:31;26.00;99.90
10883;DHT22;5494;51.796;10.952;2022-08-19T16:05:23;26.00;99.90